Time;durP1;ratioP1;P1;durP2;ratioP2;P2;SDS_P1;SDS_P2;PMS_P1;PMS_P2;Temp;Humidity;BMP_temperature;BMP_pressure;BME280_temperature;BME280_humidity;BME280_pressure;Samples;Min_cycle;Max_cycle;Signal;HPM_P1;HPM_P2
2022/09/18 00:00:47;;;;;;;;;;;;;;;20.69;29.56;96458.78;5042954;28;739;-78
2022/09/18 00:03:13;;;;;;;;;;;;;;;20.87;29.18;96462.78;5025436;28;1145;-78
2022/09/18 00:05:38;;;;;;;;;;;;;;;21.19;28.86;96456.38;5025491;28;1102;-78
2022/09/18 00:08:04;;;;;;;;;;;;;;;21.15;29.02;96452.16;5007755;28;1977;-78
2022/09/18 00:10:29;;;;;;;;;;;;;;;21.52;28.57;96444.25;5005181;28;1950;-79
2022/09/18 00:12:55;;;;;;;;;;;;;;;21.24;29.00;96458.56;5022928;28;1128;-78
2022/09/18 00:15:20;;;;;;;;;;;;;;;21.15;29.29;96455.78;4989680;28;1120;-79
2022/09/18 00:17:46;;;;;;;;;;;;;;;21.17;29.08;96433.44;5037511;28;2027;-78
2022/09/18 00:20:12;;;;;;;;;;;;;;;21.19;29.42;96445.06;5025341;28;909;-78
2022/09/18 00:22:39;;;;;;;;;;;;;;;21.09;29.64;96449.22;5025347;28;731;-78
2022/09/18 00:25:05;;;;;;;;;;;;;;;21.05;29.52;96460.69;5039891;28;836;-78
2022/09/18 00:27:31;;;;;;;;;;;;;;;21.18;29.27;96459.66;5020665;28;1973;-78
2022/09/18 00:33:31;;;;;;;;;;;;;;;20.88;29.94;96453.06;5020079;28;652;-78
2022/09/18 00:36:01;;;;;;;;;;;;;;;20.96;29.84;96454.28;4986396;28;1254;-78
2022/09/18 00:38:27;;;;;;;;;;;;;;;20.97;29.71;96472.81;5020009;28;739;-78
2022/09/18 00:40:53;;;;;;;;;;;;;;;20.93;29.89;96477.84;4985954;28;1956;-78
2022/09/18 00:43:25;;;;;;;;;;;;;;;20.87;29.94;96468.44;4991366;28;1996;-78
2022/09/18 00:45:54;;;;;;;;;;;;;;;20.80;30.23;96467.53;4981882;28;938;-77
2022/09/18 00:48:20;;;;;;;;;;;;;;;21.12;29.70;96468.03;4981586;28;1911;-78
2022/09/18 00:50:45;;;;;;;;;;;;;;;21.21;29.83;96465.16;4981426;28;791;-78
2022/09/18 00:53:11;;;;;;;;;;;;;;;21.54;29.07;96458.69;4965696;28;1239;-78
2022/09/18 00:55:39;;;;;;;;;;;;;;;21.25;29.32;96460.13;4981820;28;807;-78
2022/09/18 00:58:04;;;;;;;;;;;;;;;21.16;29.70;96463.00;4997187;28;1964;-78
2022/09/18 01:00:30;;;;;;;;;;;;;;;20.89;30.34;96460.28;4981723;28;780;-77
2022/09/18 01:02:59;;;;;;;;;;;;;;;20.89;30.27;96457.47;4981466;28;956;-78
2022/09/18 01:05:30;;;;;;;;;;;;;;;20.99;29.98;96453.34;4981724;28;795;-78
2022/09/18 01:08:02;;;;;;;;;;;;;;;20.88;30.30;96455.88;4981396;28;1914;-78
2022/09/18 01:10:30;;;;;;;;;;;;;;;20.94;30.07;96451.16;4995822;28;1912;-78
2022/09/18 01:13:16;;;;;;;;;;;;;;;20.92;30.37;96453.66;4981214;28;1330;-78
2022/09/18 01:15:53;;;;;;;;;;;;;;;21.00;30.05;96457.72;5021469;28;747;-78
2022/09/18 01:18:21;;;;;;;;;;;;;;;21.13;29.77;96446.97;5004817;28;870;-78
2022/09/18 01:21:15;;;;;;;;;;;;;;;21.17;29.97;96458.13;5020633;28;1909;-78
2022/09/18 01:24:00;;;;;;;;;;;;;;;21.66;29.24;96454.88;5038880;28;752;-78
2022/09/18 01:26:41;;;;;;;;;;;;;;;21.38;29.69;96468.41;5021599;28;1902;-78
2022/09/18 01:29:13;;;;;;;;;;;;;;;21.29;29.83;96460.69;5020958;28;1282;-78
2022/09/18 01:35:25;;;;;;;;;;;;;;;21.02;30.10;96469.34;5038744;28;616;-77
2022/09/18 01:37:55;;;;;;;;;;;;;;;21.12;30.05;96468.03;5000362;28;1946;-78
2022/09/18 01:40:23;;;;;;;;;;;;;;;20.99;30.27;96464.66;4960877;28;1974;-78
2022/09/18 01:42:49;;;;;;;;;;;;;;;20.91;30.23;96457.75;4961798;28;1297;-78
2022/09/18 01:45:16;;;;;;;;;;;;;;;20.95;30.31;96458.38;4961872;28;1188;-78
2022/09/18 01:47:45;;;;;;;;;;;;;;;20.89;30.34;96455.41;4961790;28;1906;-78
2022/09/18 01:50:10;;;;;;;;;;;;;;;20.86;30.32;96458.41;4945408;28;1148;-78
2022/09/18 01:52:38;;;;;;;;;;;;;;;21.04;29.83;96459.13;4961691;28;1600;-78
2022/09/18 01:55:05;;;;;;;;;;;;;;;20.95;30.37;96447.06;4963097;28;1912;-78
2022/09/18 01:57:38;;;;;;;;;;;;;;;20.93;30.04;96449.56;4964579;28;1266;-78
2022/09/18 02:00:03;;;;;;;;;;;;;;;20.91;30.09;96463.41;4980719;28;1262;-78
2022/09/18 02:02:41;;;;;;;;;;;;;;;20.85;30.39;96470.97;4996482;28;699;-78
2022/09/18 02:05:07;;;;;;;;;;;;;;;20.54;30.93;96475.63;4980476;28;1073;-78
2022/09/18 02:07:38;;;;;;;;;;;;;;;20.83;30.23;96467.84;4980072;28;2028;-77
2022/09/18 02:10:04;;;;;;;;;;;;;;;20.83;30.26;96474.28;4980428;28;1342;-78
2022/09/18 02:12:30;;;;;;;;;;;;;;;20.61;30.73;96462.41;5019887;28;1225;-78
2022/09/18 02:14:59;;;;;;;;;;;;;;;21.03;30.09;96470.91;5004072;28;1260;-78
2022/09/18 02:17:50;;;;;;;;;;;;;;;20.69;30.39;96472.91;4982831;28;1231;-78
2022/09/18 02:20:24;;;;;;;;;;;;;;;20.74;30.60;96474.31;4980254;28;1326;-77
2022/09/18 02:22:51;;;;;;;;;;;;;;;20.90;30.15;96476.00;4975157;28;1910;-78
2022/09/18 02:25:19;;;;;;;;;;;;;;;20.76;30.39;96472.56;4960814;28;1259;-78
2022/09/18 02:27:44;;;;;;;;;;;;;;;20.95;29.96;96483.81;4960873;28;1967;-78
2022/09/18 02:30:10;;;;;;;;;;;;;;;20.88;30.10;96486.97;4960548;28;720;-77
2022/09/18 02:32:36;;;;;;;;;;;;;;;20.94;29.94;96485.09;4960661;28;1131;-78
2022/09/18 02:35:03;;;;;;;;;;;;;;;21.31;29.92;96480.84;4976869;28;1103;-77
2022/09/18 02:37:32;;;;;;;;;;;;;;;21.54;29.67;96487.00;4980044;28;1891;-78
2022/09/18 02:40:18;;;;;;;;;;;;;;;21.16;30.04;96474.31;4980020;28;721;-78
2022/09/18 02:42:47;;;;;;;;;;;;;;;20.92;30.17;96479.13;4994885;28;1232;-78
2022/09/18 02:45:30;;;;;;;;;;;;;;;20.74;30.50;96483.59;4963598;28;1118;-78
2022/09/18 02:48:10;;;;;;;;;;;;;;;20.95;30.12;96490.25;4986491;28;1967;-78
2022/09/18 02:54:23;;;;;;;;;;;;;;;20.85;30.72;96494.38;5037291;28;624;-78
2022/09/18 02:56:58;;;;;;;;;;;;;;;20.71;30.92;96506.34;5003979;28;1098;-78
2022/09/18 02:59:37;;;;;;;;;;;;;;;20.91;30.41;96514.31;5003550;28;1192;-77
2022/09/18 03:02:03;;;;;;;;;;;;;;;20.85;30.67;96510.56;4999281;28;1898;-78
2022/09/18 03:04:32;;;;;;;;;;;;;;;20.81;30.47;96522.81;4956912;29;1240;-77
2022/09/18 03:07:06;;;;;;;;;;;;;;;20.85;30.31;96528.31;4936433;29;1918;-78
2022/09/18 03:09:38;;;;;;;;;;;;;;;20.72;30.48;96531.31;4907224;29;1083;-78
2022/09/18 03:15:39;;;;;;;;;;;;;;;20.73;30.75;96538.56;4956726;29;792;-78
2022/09/18 03:18:05;;;;;;;;;;;;;;;20.79;30.52;96542.28;4941026;29;776;-78
2022/09/18 03:20:30;;;;;;;;;;;;;;;20.83;30.37;96535.69;4940647;28;1366;-78
2022/09/18 03:26:34;;;;;;;;;;;;;;;20.73;30.33;96549.84;4955792;29;2033;-78
2022/09/18 03:29:00;;;;;;;;;;;;;;;20.90;30.07;96552.31;4972864;28;1171;-78
2022/09/18 03:31:28;;;;;;;;;;;;;;;20.86;30.30;96551.69;4957113;28;1392;-78
2022/09/18 03:33:54;;;;;;;;;;;;;;;20.80;30.37;96560.81;4973132;28;1451;-78
2022/09/18 03:36:20;;;;;;;;;;;;;;;20.47;30.75;96559.94;4973922;28;1119;-78
2022/09/18 03:38:48;;;;;;;;;;;;;;;20.83;30.13;96564.75;5029844;28;965;-77
2022/09/18 03:41:14;;;;;;;;;;;;;;;21.12;30.55;96564.19;5017951;28;1943;-78
2022/09/18 03:43:40;;;;;;;;;;;;;;;21.52;29.79;96568.78;4999372;28;1270;-78
2022/09/18 03:46:08;;;;;;;;;;;;;;;21.24;30.54;96574.53;4999992;28;1906;-78
2022/09/18 03:48:33;;;;;;;;;;;;;;;21.11;30.93;96579.59;4967653;28;1057;-78
2022/09/18 03:50:59;;;;;;;;;;;;;;;21.17;31.06;96594.66;4999649;28;1088;-78
2022/09/18 03:53:25;;;;;;;;;;;;;;;21.19;31.10;96586.50;4999701;28;1226;-78
2022/09/18 03:59:48;;;;;;;;;;;;;;;20.92;32.41;96595.81;4921907;29;1888;-78
2022/09/18 04:02:32;;;;;;;;;;;;;;;21.18;32.33;96584.13;4921770;29;648;-78
2022/09/18 04:05:17;;;;;;;;;;;;;;;21.24;32.69;96577.38;4954794;29;959;-78
2022/09/18 04:08:01;;;;;;;;;;;;;;;21.14;33.06;96564.50;4973525;28;1981;-78
2022/09/18 04:10:55;;;;;;;;;;;;;;;21.28;33.11;96560.19;4961681;28;1448;-78
2022/09/18 04:13:23;;;;;;;;;;;;;;;21.27;33.36;96548.09;4924642;29;1169;-78
2022/09/18 04:15:49;;;;;;;;;;;;;;;21.13;33.62;96553.66;4924738;29;1049;-78
2022/09/18 04:18:15;;;;;;;;;;;;;;;21.09;33.86;96559.50;4925079;29;1208;-78
2022/09/18 04:20:40;;;;;;;;;;;;;;;21.27;33.91;96553.75;4909267;29;1221;-78
2022/09/18 04:23:06;;;;;;;;;;;;;;;21.37;33.79;96553.75;4908925;29;1137;-78
2022/09/18 04:25:32;;;;;;;;;;;;;;;21.54;33.76;96567.03;4924635;29;1225;-78
2022/09/18 04:27:58;;;;;;;;;;;;;;;21.43;34.15;96582.97;4924397;29;1918;-78
2022/09/18 04:33:58;;;;;;;;;;;;;;;21.46;34.23;96599.00;4917447;29;1318;-78
2022/09/18 04:36:23;;;;;;;;;;;;;;;21.50;34.27;96610.91;4921311;29;1126;-78
2022/09/18 04:38:50;;;;;;;;;;;;;;;21.57;33.96;96608.53;4921578;29;1134;-78
2022/09/18 04:41:15;;;;;;;;;;;;;;;21.51;34.29;96609.69;4920439;29;902;-78
2022/09/18 04:43:43;;;;;;;;;;;;;;;21.61;33.90;96604.75;4913003;29;1566;-77
2022/09/18 04:46:09;;;;;;;;;;;;;;;21.38;34.38;96615.53;4943452;29;1984;-78
2022/09/18 04:48:35;;;;;;;;;;;;;;;21.53;34.40;96633.38;4943332;29;1177;-78
2022/09/18 04:51:03;;;;;;;;;;;;;;;21.53;34.00;96646.75;4943470;29;1125;-77
2022/09/18 04:53:34;;;;;;;;;;;;;;;21.41;34.25;96651.38;4943570;29;1175;-78
2022/09/18 04:56:00;;;;;;;;;;;;;;;21.46;33.94;96655.59;4943699;29;1102;-78
2022/09/18 04:58:28;;;;;;;;;;;;;;;21.48;33.75;96662.34;4943415;29;1326;-78
2022/09/18 05:00:59;;;;;;;;;;;;;;;21.42;33.82;96654.97;4975732;28;831;-78
2022/09/18 05:03:24;;;;;;;;;;;;;;;21.58;33.56;96654.59;5002160;28;1271;-78
2022/09/18 05:05:50;;;;;;;;;;;;;;;21.42;34.01;96657.81;4985785;28;1137;-78
2022/09/18 05:08:16;;;;;;;;;;;;;;;21.61;33.66;96650.06;4985580;28;1910;-78
2022/09/18 05:10:42;;;;;;;;;;;;;;;21.67;33.46;96654.56;5001121;28;1178;-77
2022/09/18 05:13:07;;;;;;;;;;;;;;;21.66;33.91;96664.34;4985653;28;1630;-78
2022/09/18 05:15:37;;;;;;;;;;;;;;;21.75;33.62;96678.44;4986173;28;1212;-78
2022/09/18 05:18:04;;;;;;;;;;;;;;;21.50;34.47;96684.50;5001877;28;1280;-78
2022/09/18 05:20:31;;;;;;;;;;;;;;;21.74;33.92;96710.84;4985341;28;1298;-78
2022/09/18 05:23:02;;;;;;;;;;;;;;;21.74;33.68;96733.50;4978754;28;1323;-78
2022/09/18 05:25:28;;;;;;;;;;;;;;;21.75;33.76;96735.06;5001708;28;1042;-77
2022/09/18 05:27:54;;;;;;;;;;;;;;;21.64;34.22;96743.28;5017969;28;1902;-78
2022/09/18 05:30:22;;;;;;;;;;;;;;;21.51;34.10;96749.13;4985787;28;1278;-77
2022/09/18 05:32:56;;;;;;;;;;;;;;;21.59;34.05;96755.22;5001651;28;1072;-77
2022/09/18 05:35:22;;;;;;;;;;;;;;;21.74;33.74;96756.13;4985605;28;1235;-78
2022/09/18 05:37:51;;;;;;;;;;;;;;;21.68;33.67;96757.25;5001482;28;1301;-78
2022/09/18 05:40:18;;;;;;;;;;;;;;;21.71;33.54;96767.63;5001904;28;740;-78
2022/09/18 05:42:47;;;;;;;;;;;;;;;21.71;33.47;96762.78;4985043;28;1129;-78
2022/09/18 05:48:48;;;;;;;;;;;;;;;21.71;33.43;96768.44;5018763;28;625;-78
2022/09/18 05:51:14;;;;;;;;;;;;;;;21.81;33.30;96767.16;5001444;28;1095;-78
2022/09/18 05:53:41;;;;;;;;;;;;;;;21.95;33.27;96759.22;4985134;28;1339;-78
2022/09/18 05:56:15;;;;;;;;;;;;;;;21.78;33.66;96765.25;4986193;28;1244;-78
2022/09/18 05:58:42;;;;;;;;;;;;;;;21.82;33.30;96773.59;5001233;28;1151;-78
2022/09/18 06:01:08;;;;;;;;;;;;;;;21.68;33.70;96780.69;5017495;28;1215;-78
2022/09/18 06:04:15;;;;;;;;;;;;;;;21.77;33.67;96779.91;4958002;29;912;-77
2022/09/18 06:06:47;;;;;;;;;;;;;;;21.76;33.63;96787.63;4941822;29;1906;-78
2022/09/18 06:09:13;;;;;;;;;;;;;;;21.72;33.41;96787.00;4941924;29;1566;-78
2022/09/18 06:11:38;;;;;;;;;;;;;;;21.82;33.53;96780.03;4957963;29;1219;-78
2022/09/18 06:14:04;;;;;;;;;;;;;;;21.80;33.68;96779.72;4957558;29;1027;-78
2022/09/18 06:16:31;;;;;;;;;;;;;;;21.75;33.30;96780.34;4941744;29;1208;-78
2022/09/18 06:19:04;;;;;;;;;;;;;;;21.71;33.31;96776.94;4941649;29;1196;-78
2022/09/18 06:21:29;;;;;;;;;;;;;;;21.80;33.27;96788.22;4941709;29;1294;-78
2022/09/18 06:23:56;;;;;;;;;;;;;;;21.77;33.62;96789.19;4940704;29;1122;-78
2022/09/18 06:26:37;;;;;;;;;;;;;;;21.60;33.56;96810.56;4927529;29;1911;-78
2022/09/18 06:29:04;;;;;;;;;;;;;;;21.77;33.32;96816.72;4941864;29;1299;-78
2022/09/18 06:31:36;;;;;;;;;;;;;;;21.71;33.54;96808.06;4957452;29;1054;-78
2022/09/18 06:34:07;;;;;;;;;;;;;;;21.87;33.06;96825.97;4962196;28;1048;-78
2022/09/18 06:36:33;;;;;;;;;;;;;;;21.64;33.33;96828.19;4984521;28;1237;-78
2022/09/18 06:39:18;;;;;;;;;;;;;;;21.66;33.42;96839.84;4976674;28;950;-78
2022/09/18 06:41:48;;;;;;;;;;;;;;;21.82;33.04;96850.84;4960472;28;1419;-78
2022/09/18 06:47:59;;;;;;;;;;;;;;;21.53;33.51;96865.47;4976748;28;1910;-77
2022/09/18 06:50:25;;;;;;;;;;;;;;;21.82;32.97;96881.97;4944473;28;1337;-78
2022/09/18 06:52:51;;;;;;;;;;;;;;;21.83;32.85;96894.88;4960775;28;1102;-78
2022/09/18 06:55:16;;;;;;;;;;;;;;;21.65;32.96;96874.28;4944439;28;1401;-77
2022/09/18 06:58:01;;;;;;;;;;;;;;;21.80;32.78;96884.47;4944934;28;1179;-77
2022/09/18 07:00:27;;;;;;;;;;;;;;;21.87;32.80;96876.94;4960394;28;1255;-78
2022/09/18 07:02:54;;;;;;;;;;;;;;;21.85;32.90;96881.00;4960440;28;1225;-78
2022/09/18 07:05:41;;;;;;;;;;;;;;;21.88;32.96;96884.19;4962340;28;848;-78
2022/09/18 07:08:08;;;;;;;;;;;;;;;22.04;32.63;96892.34;4944536;28;1923;-77
2022/09/18 07:14:10;;;;;;;;;;;;;;;21.77;33.31;96904.47;4956725;29;637;-78
2022/09/18 07:16:36;;;;;;;;;;;;;;;21.76;32.78;96912.19;4961162;28;1080;-78
2022/09/18 07:19:02;;;;;;;;;;;;;;;21.87;32.62;96916.59;4980956;28;1180;-78
2022/09/18 07:21:28;;;;;;;;;;;;;;;21.87;32.43;96917.38;4980509;28;1345;-78
2022/09/18 07:23:54;;;;;;;;;;;;;;;21.76;32.70;96917.84;4980579;28;1152;-77
2022/09/18 07:26:28;;;;;;;;;;;;;;;21.64;32.92;96927.28;4980688;28;1906;-78
2022/09/18 07:28:55;;;;;;;;;;;;;;;21.74;32.42;96945.06;4980370;28;1247;-78
2022/09/18 07:31:29;;;;;;;;;;;;;;;21.78;32.56;96949.31;4996596;28;1240;-78
2022/09/18 07:33:55;;;;;;;;;;;;;;;21.72;32.65;96951.19;4981079;28;1195;-78
2022/09/18 07:36:25;;;;;;;;;;;;;;;21.77;32.46;96952.63;5000619;28;1304;-78
2022/09/18 07:38:52;;;;;;;;;;;;;;;21.74;32.31;96959.22;4984597;28;1390;-77
2022/09/18 07:41:18;;;;;;;;;;;;;;;21.65;32.73;96951.50;4995812;28;1124;-78
2022/09/18 07:43:44;;;;;;;;;;;;;;;21.70;32.42;96959.34;4979847;28;825;-78
2022/09/18 07:46:10;;;;;;;;;;;;;;;21.89;32.33;96959.38;4979841;28;1179;-77
2022/09/18 07:48:37;;;;;;;;;;;;;;;21.62;32.53;96969.44;4963803;28;1981;-78
2022/09/18 07:51:23;;;;;;;;;;;;;;;21.76;32.36;96963.16;4979488;28;1006;-77
2022/09/18 07:53:49;;;;;;;;;;;;;;;21.88;32.19;96969.13;4963753;28;881;-78
2022/09/18 07:56:22;;;;;;;;;;;;;;;21.84;32.26;96975.72;4963568;28;1157;-78
2022/09/18 07:58:48;;;;;;;;;;;;;;;21.62;32.64;96980.75;4995904;28;1083;-79
2022/09/18 08:01:19;;;;;;;;;;;;;;;21.66;32.89;96981.41;4979584;28;944;-78
2022/09/18 08:07:26;;;;;;;;;;;;;;;21.65;32.79;97008.09;4921707;29;1981;-78
2022/09/18 08:10:15;;;;;;;;;;;;;;;21.73;32.55;97009.38;4906257;29;1079;-78
2022/09/18 08:12:56;;;;;;;;;;;;;;;21.70;32.55;96996.16;4918435;29;1260;-79
2022/09/18 08:15:46;;;;;;;;;;;;;;;21.69;32.41;97005.91;4940622;29;841;-78
2022/09/18 08:18:24;;;;;;;;;;;;;;;21.64;32.55;97011.41;4921501;29;1022;-77
2022/09/18 08:21:07;;;;;;;;;;;;;;;21.75;32.41;96991.91;4921687;29;1265;-78
2022/09/18 08:23:41;;;;;;;;;;;;;;;21.76;32.17;97008.47;4891726;29;1107;-78
2022/09/18 08:26:06;;;;;;;;;;;;;;;21.92;32.14;97003.75;4906137;29;1170;-77
2022/09/18 08:28:32;;;;;;;;;;;;;;;21.73;32.24;97023.53;4889990;29;1988;-77
2022/09/18 08:31:00;;;;;;;;;;;;;;;21.64;32.71;97031.22;4921431;29;1227;-78
2022/09/18 08:33:25;;;;;;;;;;;;;;;21.79;32.06;97018.03;4890068;29;1135;-78
2022/09/18 08:35:53;;;;;;;;;;;;;;;21.93;31.97;97033.66;4974331;28;1215;-78
2022/09/18 08:38:23;;;;;;;;;;;;;;;21.93;31.91;97030.81;4947251;28;1163;-78
2022/09/18 08:41:07;;;;;;;;;;;;;;;21.82;32.20;97023.56;4978853;28;628;-78
2022/09/18 08:43:41;;;;;;;;;;;;;;;21.85;31.89;97039.59;4962766;28;1311;-78
2022/09/18 08:46:11;;;;;;;;;;;;;;;21.77;32.03;97049.66;4945480;28;1271;-78
2022/09/18 08:48:38;;;;;;;;;;;;;;;21.85;31.87;97055.81;4949728;28;1961;-78
2022/09/18 08:51:16;;;;;;;;;;;;;;;21.93;31.66;97059.13;4965999;28;1243;-78
2022/09/18 08:53:44;;;;;;;;;;;;;;;21.72;32.05;97064.44;4993673;28;1275;-78
2022/09/18 08:56:32;;;;;;;;;;;;;;;21.77;31.82;97054.56;5028440;28;1186;-79
2022/09/18 08:59:38;;;;;;;;;;;;;;;21.81;31.94;97050.31;5002587;28;1215;-78
2022/09/18 09:02:13;;;;;;;;;;;;;;;21.99;31.56;97043.09;4996708;28;1305;-79
2022/09/18 09:04:39;;;;;;;;;;;;;;;21.88;31.63;97049.22;4990081;28;1306;-79
2022/09/18 09:07:21;;;;;;;;;;;;;;;21.82;31.64;97037.72;4990418;28;1995;-79
2022/09/18 09:09:48;;;;;;;;;;;;;;;21.67;31.99;97036.75;4992426;28;1183;-79
2022/09/18 09:12:16;;;;;;;;;;;;;;;21.90;31.36;97034.56;4994712;28;1302;-78
2022/09/18 09:15:03;;;;;;;;;;;;;;;21.69;31.97;97037.06;5006756;28;1353;-79
2022/09/18 09:17:46;;;;;;;;;;;;;;;21.88;31.60;97042.75;4977363;28;1281;-79
2022/09/18 09:20:21;;;;;;;;;;;;;;;21.87;31.54;97033.50;4958542;29;1207;-78
2022/09/18 09:23:00;;;;;;;;;;;;;;;21.63;31.98;97033.28;4942671;29;1485;-78
2022/09/18 09:25:32;;;;;;;;;;;;;;;21.66;32.23;97026.69;4958624;29;1376;-78
2022/09/18 09:31:49;;;;;;;;;;;;;;;21.76;31.99;97011.28;4958601;29;769;-78
2022/09/18 09:34:25;;;;;;;;;;;;;;;21.87;31.91;97024.22;4893775;29;1257;-78
2022/09/18 09:36:58;;;;;;;;;;;;;;;21.95;31.72;97036.78;4897801;29;1171;-79
2022/09/18 09:39:28;;;;;;;;;;;;;;;21.92;32.04;97038.53;4906438;29;1260;-78
2022/09/18 09:41:57;;;;;;;;;;;;;;;21.72;32.18;97030.47;4917107;29;1256;-79
2022/09/18 09:44:25;;;;;;;;;;;;;;;21.71;32.16;97034.56;4917249;29;1218;-79
2022/09/18 09:47:09;;;;;;;;;;;;;;;21.78;31.92;97045.56;4916764;29;1981;-79
2022/09/18 09:49:39;;;;;;;;;;;;;;;21.77;32.06;97040.41;4937965;29;1105;-78
2022/09/18 09:52:07;;;;;;;;;;;;;;;21.71;32.28;97040.22;4938940;29;800;-78
2022/09/18 09:54:33;;;;;;;;;;;;;;;21.64;32.48;97045.38;4938918;29;1393;-78
2022/09/18 09:57:02;;;;;;;;;;;;;;;21.81;32.00;97033.31;4952450;28;802;-79
2022/09/18 09:59:51;;;;;;;;;;;;;;;21.97;31.78;97037.91;4997651;28;1206;-78
2022/09/18 10:02:21;;;;;;;;;;;;;;;21.74;32.34;97044.94;5013724;28;1246;-79
2022/09/18 10:04:48;;;;;;;;;;;;;;;21.96;31.81;97032.69;5003512;28;1282;-79
2022/09/18 10:07:19;;;;;;;;;;;;;;;21.87;32.23;97052.53;5003096;28;1976;-78
2022/09/18 10:09:50;;;;;;;;;;;;;;;21.87;31.92;97061.03;5019591;28;1018;-78
2022/09/18 10:12:16;;;;;;;;;;;;;;;21.95;31.86;97048.13;5005024;28;1118;-79
2022/09/18 10:14:45;;;;;;;;;;;;;;;21.85;31.99;97059.41;5019249;28;1070;-78
2022/09/18 10:17:10;;;;;;;;;;;;;;;21.97;31.85;97068.28;5003048;28;1182;-79
2022/09/18 10:19:36;;;;;;;;;;;;;;;22.00;31.66;97053.94;4997987;28;1150;-78
2022/09/18 10:22:04;;;;;;;;;;;;;;;21.95;31.96;97076.44;4971807;28;1290;-78
2022/09/18 10:24:39;;;;;;;;;;;;;;;22.08;31.71;97068.59;4982992;28;1290;-78
2022/09/18 10:27:13;;;;;;;;;;;;;;;21.76;32.12;97076.41;4964940;28;1972;-78
2022/09/18 10:29:40;;;;;;;;;;;;;;;22.05;31.51;97086.53;4956447;28;1331;-79
2022/09/18 10:32:11;;;;;;;;;;;;;;;21.92;31.83;97088.72;4937220;29;1117;-79
2022/09/18 10:34:41;;;;;;;;;;;;;;;21.92;31.82;97083.84;4937435;29;1366;-79
2022/09/18 10:37:14;;;;;;;;;;;;;;;21.77;32.08;97089.31;4937125;29;1427;-79
2022/09/18 10:39:50;;;;;;;;;;;;;;;21.87;31.85;97109.16;4951177;29;1240;-79
2022/09/18 10:42:18;;;;;;;;;;;;;;;21.99;31.57;97100.53;4941658;29;1240;-79
2022/09/18 10:44:49;;;;;;;;;;;;;;;21.90;31.74;97096.88;4923856;29;1339;-78
2022/09/18 10:47:37;;;;;;;;;;;;;;;21.85;31.94;97084.91;4957300;29;1907;-79
2022/09/18 10:50:05;;;;;;;;;;;;;;;21.95;31.50;97082.09;4956116;29;1254;-78
2022/09/18 10:52:39;;;;;;;;;;;;;;;22.14;31.35;97089.41;4955709;29;1294;-79
2022/09/18 10:55:14;;;;;;;;;;;;;;;21.95;31.37;97082.09;4956045;29;1270;-78
2022/09/18 10:57:51;;;;;;;;;;;;;;;21.95;31.51;97087.75;4939923;29;1292;-79
2022/09/18 11:00:19;;;;;;;;;;;;;;;21.91;31.59;97109.78;4953419;28;1330;-78
2022/09/18 11:02:48;;;;;;;;;;;;;;;22.02;31.54;97118.59;4989285;28;1371;-79
2022/09/18 11:05:22;;;;;;;;;;;;;;;21.98;31.37;97109.50;5002316;28;1124;-78
2022/09/18 11:07:51;;;;;;;;;;;;;;;22.03;31.47;97112.50;5002899;28;1965;-79
2022/09/18 11:10:17;;;;;;;;;;;;;;;21.99;31.36;97102.56;5001714;28;1362;-78
2022/09/18 11:12:51;;;;;;;;;;;;;;;21.96;31.75;97112.00;5002153;28;1152;-79
2022/09/18 11:15:25;;;;;;;;;;;;;;;21.81;31.91;97118.28;4986781;28;1373;-78
2022/09/18 11:17:53;;;;;;;;;;;;;;;21.96;31.92;97123.31;5017976;28;1292;-78
2022/09/18 11:20:21;;;;;;;;;;;;;;;22.08;31.36;97125.25;4974964;28;1317;-78
2022/09/18 11:22:51;;;;;;;;;;;;;;;21.96;31.58;97140.31;4958930;28;1160;-79
2022/09/18 11:25:26;;;;;;;;;;;;;;;21.73;31.73;97128.31;4943913;28;1125;-79
2022/09/18 11:27:58;;;;;;;;;;;;;;;21.90;31.60;97142.19;4959647;28;1902;-78
2022/09/18 11:30:29;;;;;;;;;;;;;;;22.03;31.25;97140.03;4939464;29;1439;-79
2022/09/18 11:33:04;;;;;;;;;;;;;;;22.18;31.01;97135.38;4924020;29;1257;-78
2022/09/18 11:35:30;;;;;;;;;;;;;;;22.02;31.39;97144.09;4955348;29;1184;-79
2022/09/18 11:37:57;;;;;;;;;;;;;;;22.07;31.31;97147.13;4924646;29;1234;-80
2022/09/18 11:40:30;;;;;;;;;;;;;;;22.06;31.25;97145.53;4940553;29;1247;-79
2022/09/18 11:42:56;;;;;;;;;;;;;;;22.09;31.25;97138.16;4940184;29;784;-79
2022/09/18 11:45:22;;;;;;;;;;;;;;;22.00;31.23;97123.97;4940577;29;1168;-76
2022/09/18 11:47:51;;;;;;;;;;;;;;;22.06;31.34;97133.41;4956269;29;1906;-79
2022/09/18 11:50:20;;;;;;;;;;;;;;;21.93;31.52;97138.44;4941974;28;831;-79
2022/09/18 11:52:48;;;;;;;;;;;;;;;22.01;31.08;97136.88;4975525;28;1198;-79
2022/09/18 11:55:19;;;;;;;;;;;;;;;21.99;31.12;97145.06;4940038;29;1069;-79
2022/09/18 11:57:48;;;;;;;;;;;;;;;22.07;31.17;97151.97;4953900;29;1314;-77
2022/09/18 12:00:22;;;;;;;;;;;;;;;21.90;31.32;97153.53;4955369;29;1220;-79
2022/09/18 12:03:15;;;;;;;;;;;;;;;22.19;30.72;97153.94;4955059;29;1129;-80
2022/09/18 12:05:52;;;;;;;;;;;;;;;21.95;31.09;97152.91;4939449;29;1200;-77
2022/09/18 12:08:38;;;;;;;;;;;;;;;21.97;31.16;97154.03;4966283;28;1902;-80
2022/09/18 12:11:09;;;;;;;;;;;;;;;21.95;31.14;97159.34;5013353;28;1492;-79
2022/09/18 12:13:38;;;;;;;;;;;;;;;22.15;30.95;97141.97;5013602;28;1104;-79
2022/09/18 12:16:12;;;;;;;;;;;;;;;22.20;30.83;97147.03;5013412;28;1138;-77
2022/09/18 12:18:59;;;;;;;;;;;;;;;21.87;31.13;97140.31;4981038;28;1306;-80
2022/09/18 12:21:30;;;;;;;;;;;;;;;21.79;31.51;97151.91;5000036;28;1078;-79
2022/09/18 12:23:56;;;;;;;;;;;;;;;22.08;31.12;97147.91;4984924;28;1229;-79
2022/09/18 12:26:47;;;;;;;;;;;;;;;21.98;31.07;97161.28;4994112;28;1482;-79
2022/09/18 12:29:21;;;;;;;;;;;;;;;21.98;31.35;97154.81;4981420;28;1180;-79
2022/09/18 12:32:06;;;;;;;;;;;;;;;22.02;31.04;97161.09;4997836;28;956;-79
2022/09/18 12:34:54;;;;;;;;;;;;;;;22.18;30.77;97169.38;4997785;28;895;-79
2022/09/18 12:37:25;;;;;;;;;;;;;;;22.07;30.97;97174.66;4958828;28;1043;-79
2022/09/18 12:40:09;;;;;;;;;;;;;;;22.18;30.90;97177.88;4958794;29;1220;-80
2022/09/18 12:42:47;;;;;;;;;;;;;;;21.99;31.14;97174.16;4959201;29;1311;-79
2022/09/18 12:45:36;;;;;;;;;;;;;;;21.95;31.34;97167.84;4943421;29;775;-79
2022/09/18 12:48:01;;;;;;;;;;;;;;;21.87;31.18;97182.78;4882958;29;1987;-79
2022/09/18 12:50:45;;;;;;;;;;;;;;;22.07;30.95;97183.16;4883403;29;1044;-80
2022/09/18 12:53:11;;;;;;;;;;;;;;;21.85;31.34;97186.06;4883064;29;1244;-79
2022/09/18 12:55:42;;;;;;;;;;;;;;;22.08;31.11;97191.19;4882815;29;1089;-79
2022/09/18 12:58:08;;;;;;;;;;;;;;;22.05;30.70;97177.16;4882913;29;980;-79
2022/09/18 13:00:33;;;;;;;;;;;;;;;22.02;30.74;97183.75;4883188;29;1118;-79
2022/09/18 13:03:13;;;;;;;;;;;;;;;21.87;30.97;97182.78;4867467;29;792;-79
2022/09/18 13:05:46;;;;;;;;;;;;;;;21.81;31.22;97174.91;4857391;29;1437;-79
2022/09/18 13:08:18;;;;;;;;;;;;;;;21.87;31.07;97182.78;4870788;29;1923;-79
2022/09/18 13:10:44;;;;;;;;;;;;;;;21.92;30.99;97185.00;4902131;29;835;-79
2022/09/18 13:13:14;;;;;;;;;;;;;;;21.90;30.83;97179.00;4886692;29;1098;-79
2022/09/18 13:15:50;;;;;;;;;;;;;;;21.81;31.05;97180.56;4939168;29;751;-79
2022/09/18 13:18:15;;;;;;;;;;;;;;;21.92;30.71;97179.34;4923540;29;998;-79
2022/09/18 13:20:42;;;;;;;;;;;;;;;21.78;31.22;97183.53;4939406;29;847;-79
2022/09/18 13:23:12;;;;;;;;;;;;;;;21.81;30.96;97186.25;4923354;29;793;-79
2022/09/18 13:25:38;;;;;;;;;;;;;;;21.88;30.79;97190.03;5002090;28;1009;-79
2022/09/18 13:28:06;;;;;;;;;;;;;;;21.99;30.82;97181.88;5020904;28;1981;-79
2022/09/18 13:30:32;;;;;;;;;;;;;;;21.85;31.07;97184.03;5021284;28;736;-79
2022/09/18 13:32:58;;;;;;;;;;;;;;;21.81;30.89;97189.06;5020673;28;870;-79
2022/09/18 13:35:28;;;;;;;;;;;;;;;21.73;31.24;97187.75;5004968;28;1089;-79
2022/09/18 13:38:03;;;;;;;;;;;;;;;21.92;30.78;97196.34;5020836;28;842;-78
2022/09/18 13:40:34;;;;;;;;;;;;;;;21.71;31.17;97192.31;5038382;28;815;-79
2022/09/18 13:43:18;;;;;;;;;;;;;;;21.70;31.32;97202.84;5021159;28;1463;-79
2022/09/18 13:45:44;;;;;;;;;;;;;;;21.79;30.83;97197.22;5037342;28;1174;-79
2022/09/18 13:48:18;;;;;;;;;;;;;;;21.88;30.70;97207.03;5004563;28;1977;-79
2022/09/18 13:50:57;;;;;;;;;;;;;;;21.88;30.78;97212.69;4988439;28;1250;-79
2022/09/18 13:53:31;;;;;;;;;;;;;;;22.01;30.51;97204.84;4988379;28;1217;-79
2022/09/18 13:55:57;;;;;;;;;;;;;;;22.01;30.46;97207.69;5038072;28;739;-78
2022/09/18 13:58:34;;;;;;;;;;;;;;;21.88;30.70;97207.03;5004322;28;764;-79
2022/09/18 14:01:00;;;;;;;;;;;;;;;21.88;30.74;97212.69;5037928;28;819;-78
2022/09/18 14:03:26;;;;;;;;;;;;;;;21.97;30.72;97221.22;4976931;28;828;-79